sensor_id;sensor_type;location;lat;lon;timestamp;P1;durP1;ratioP1;P2;durP2;ratioP2
6735;SDS011;3405;50.576;12.364;2023-06-26T00:01:18;4.25;;;3.60;;
6735;SDS011;3405;50.576;12.364;2023-06-26T00:03:47;4.05;;;3.50;;
6735;SDS011;3405;50.576;12.364;2023-06-26T00:06:13;4.50;;;3.60;;
6735;SDS011;3405;50.576;12.364;2023-06-26T00:08:39;3.58;;;3.13;;
6735;SDS011;3405;50.576;12.364;2023-06-26T00:11:05;3.53;;;3.20;;
6735;SDS011;3405;50.576;12.364;2023-06-26T00:13:31;4.05;;;3.60;;
6735;SDS011;3405;50.576;12.364;2023-06-26T00:15:57;4.20;;;3.58;;
6735;SDS011;3405;50.576;12.364;2023-06-26T00:18:27;4.55;;;3.45;;
6735;SDS011;3405;50.576;12.364;2023-06-26T00:20:53;3.72;;;3.42;;
6735;SDS011;3405;50.576;12.364;2023-06-26T00:23:19;3.78;;;3.30;;
6735;SDS011;3405;50.576;12.364;2023-06-26T00:25:45;3.95;;;3.53;;
6735;SDS011;3405;50.576;12.364;2023-06-26T00:28:11;3.85;;;3.15;;
6735;SDS011;3405;50.576;12.364;2023-06-26T00:30:37;4.32;;;3.47;;
6735;SDS011;3405;50.576;12.364;2023-06-26T00:33:03;3.92;;;3.47;;
6735;SDS011;3405;50.576;12.364;2023-06-26T00:35:29;3.80;;;3.28;;
6735;SDS011;3405;50.576;12.364;2023-06-26T00:37:55;3.97;;;3.53;;
6735;SDS011;3405;50.576;12.364;2023-06-26T00:40:21;3.38;;;2.90;;
6735;SDS011;3405;50.576;12.364;2023-06-26T00:42:47;4.60;;;3.47;;
6735;SDS011;3405;50.576;12.364;2023-06-26T00:45:13;3.38;;;3.00;;
6735;SDS011;3405;50.576;12.364;2023-06-26T00:47:39;4.97;;;3.63;;
6735;SDS011;3405;50.576;12.364;2023-06-26T00:50:05;3.88;;;3.47;;
6735;SDS011;3405;50.576;12.364;2023-06-26T00:52:31;4.25;;;3.78;;
6735;SDS011;3405;50.576;12.364;2023-06-26T00:54:57;3.00;;;2.80;;
6735;SDS011;3405;50.576;12.364;2023-06-26T00:57:23;3.75;;;3.35;;
6735;SDS011;3405;50.576;12.364;2023-06-26T00:59:49;3.58;;;3.28;;
6735;SDS011;3405;50.576;12.364;2023-06-26T01:02:15;4.15;;;3.20;;
6735;SDS011;3405;50.576;12.364;2023-06-26T01:04:45;3.58;;;3.28;;
6735;SDS011;3405;50.576;12.364;2023-06-26T01:07:12;4.00;;;3.45;;
6735;SDS011;3405;50.576;12.364;2023-06-26T01:09:38;3.85;;;3.42;;
6735;SDS011;3405;50.576;12.364;2023-06-26T01:12:04;4.60;;;3.28;;
6735;SDS011;3405;50.576;12.364;2023-06-26T01:14:30;3.38;;;3.08;;
6735;SDS011;3405;50.576;12.364;2023-06-26T01:16:57;5.60;;;3.53;;
6735;SDS011;3405;50.576;12.364;2023-06-26T01:19:24;3.50;;;2.90;;
6735;SDS011;3405;50.576;12.364;2023-06-26T01:21:51;3.50;;;3.20;;
6735;SDS011;3405;50.576;12.364;2023-06-26T01:24:18;4.20;;;3.42;;
6735;SDS011;3405;50.576;12.364;2023-06-26T01:26:52;3.92;;;3.40;;
6735;SDS011;3405;50.576;12.364;2023-06-26T01:29:18;4.57;;;3.38;;
6735;SDS011;3405;50.576;12.364;2023-06-26T01:31:46;5.65;;;3.22;;
6735;SDS011;3405;50.576;12.364;2023-06-26T01:34:15;4.03;;;3.20;;
6735;SDS011;3405;50.576;12.364;2023-06-26T01:36:41;3.45;;;3.08;;
6735;SDS011;3405;50.576;12.364;2023-06-26T01:39:07;3.90;;;3.47;;
6735;SDS011;3405;50.576;12.364;2023-06-26T01:41:33;3.78;;;3.30;;
6735;SDS011;3405;50.576;12.364;2023-06-26T01:46:43;3.83;;;3.10;;
6735;SDS011;3405;50.576;12.364;2023-06-26T01:49:12;3.35;;;3.05;;
6735;SDS011;3405;50.576;12.364;2023-06-26T01:51:42;6.38;;;3.70;;
6735;SDS011;3405;50.576;12.364;2023-06-26T01:54:09;3.50;;;3.20;;
6735;SDS011;3405;50.576;12.364;2023-06-26T01:56:35;3.53;;;3.22;;
6735;SDS011;3405;50.576;12.364;2023-06-26T01:59:04;3.72;;;3.25;;
6735;SDS011;3405;50.576;12.364;2023-06-26T02:01:30;3.65;;;3.28;;
6735;SDS011;3405;50.576;12.364;2023-06-26T02:03:58;3.40;;;3.05;;
6735;SDS011;3405;50.576;12.364;2023-06-26T02:06:24;4.18;;;3.42;;
6735;SDS011;3405;50.576;12.364;2023-06-26T02:08:50;3.15;;;2.85;;
6735;SDS011;3405;50.576;12.364;2023-06-26T02:11:16;3.50;;;3.20;;
6735;SDS011;3405;50.576;12.364;2023-06-26T02:13:42;5.40;;;3.55;;
6735;SDS011;3405;50.576;12.364;2023-06-26T02:16:07;5.13;;;3.30;;
6735;SDS011;3405;50.576;12.364;2023-06-26T02:18:33;3.55;;;3.10;;
6735;SDS011;3405;50.576;12.364;2023-06-26T02:20:59;3.90;;;3.30;;
6735;SDS011;3405;50.576;12.364;2023-06-26T02:23:27;3.97;;;3.10;;
6735;SDS011;3405;50.576;12.364;2023-06-26T02:25:52;4.03;;;3.50;;
6735;SDS011;3405;50.576;12.364;2023-06-26T02:28:18;3.47;;;2.97;;
6735;SDS011;3405;50.576;12.364;2023-06-26T02:30:44;4.85;;;3.40;;
6735;SDS011;3405;50.576;12.364;2023-06-26T02:33:10;4.75;;;3.20;;
6735;SDS011;3405;50.576;12.364;2023-06-26T02:35:36;4.38;;;3.17;;
6735;SDS011;3405;50.576;12.364;2023-06-26T02:38:02;4.25;;;3.35;;
6735;SDS011;3405;50.576;12.364;2023-06-26T02:40:28;3.97;;;3.22;;
6735;SDS011;3405;50.576;12.364;2023-06-26T02:42:54;4.80;;;3.38;;
6735;SDS011;3405;50.576;12.364;2023-06-26T02:45:20;4.88;;;3.38;;
6735;SDS011;3405;50.576;12.364;2023-06-26T02:47:45;5.78;;;3.33;;
6735;SDS011;3405;50.576;12.364;2023-06-26T02:50:11;3.95;;;3.55;;
6735;SDS011;3405;50.576;12.364;2023-06-26T02:52:37;3.85;;;3.33;;
6735;SDS011;3405;50.576;12.364;2023-06-26T02:55:04;3.95;;;3.55;;
6735;SDS011;3405;50.576;12.364;2023-06-26T02:57:30;3.75;;;3.33;;
6735;SDS011;3405;50.576;12.364;2023-06-26T02:59:56;4.13;;;3.67;;
6735;SDS011;3405;50.576;12.364;2023-06-26T03:02:22;3.65;;;3.30;;
6735;SDS011;3405;50.576;12.364;2023-06-26T03:04:48;3.70;;;3.35;;
6735;SDS011;3405;50.576;12.364;2023-06-26T03:07:14;7.10;;;3.63;;
6735;SDS011;3405;50.576;12.364;2023-06-26T03:09:41;6.20;;;3.20;;
6735;SDS011;3405;50.576;12.364;2023-06-26T03:12:07;6.65;;;3.85;;
6735;SDS011;3405;50.576;12.364;2023-06-26T03:14:33;4.72;;;3.40;;
6735;SDS011;3405;50.576;12.364;2023-06-26T03:16:59;3.75;;;3.30;;
6735;SDS011;3405;50.576;12.364;2023-06-26T03:19:28;3.58;;;3.28;;
6735;SDS011;3405;50.576;12.364;2023-06-26T03:21:54;4.57;;;3.22;;
6735;SDS011;3405;50.576;12.364;2023-06-26T03:24:20;5.35;;;3.60;;
6735;SDS011;3405;50.576;12.364;2023-06-26T03:26:46;3.85;;;3.45;;
6735;SDS011;3405;50.576;12.364;2023-06-26T03:29:12;4.93;;;3.50;;
6735;SDS011;3405;50.576;12.364;2023-06-26T03:31:38;4.65;;;3.72;;
6735;SDS011;3405;50.576;12.364;2023-06-26T03:34:04;4.80;;;3.65;;
6735;SDS011;3405;50.576;12.364;2023-06-26T03:36:30;6.18;;;3.65;;
6735;SDS011;3405;50.576;12.364;2023-06-26T03:38:56;18.95;;;5.35;;
6735;SDS011;3405;50.576;12.364;2023-06-26T03:41:22;19.55;;;6.30;;
6735;SDS011;3405;50.576;12.364;2023-06-26T03:43:48;23.00;;;6.10;;
6735;SDS011;3405;50.576;12.364;2023-06-26T03:46:14;20.55;;;5.57;;
6735;SDS011;3405;50.576;12.364;2023-06-26T03:48:40;16.58;;;4.93;;
6735;SDS011;3405;50.576;12.364;2023-06-26T03:51:06;21.08;;;4.70;;
6735;SDS011;3405;50.576;12.364;2023-06-26T03:53:33;18.63;;;5.68;;
6735;SDS011;3405;50.576;12.364;2023-06-26T03:55:59;15.95;;;5.50;;
6735;SDS011;3405;50.576;12.364;2023-06-26T03:58:25;17.70;;;5.63;;
6735;SDS011;3405;50.576;12.364;2023-06-26T04:00:51;12.85;;;5.20;;
6735;SDS011;3405;50.576;12.364;2023-06-26T04:03:18;16.35;;;5.18;;
6735;SDS011;3405;50.576;12.364;2023-06-26T04:05:44;12.02;;;4.72;;
6735;SDS011;3405;50.576;12.364;2023-06-26T04:08:10;12.43;;;4.88;;
6735;SDS011;3405;50.576;12.364;2023-06-26T04:10:36;8.93;;;4.18;;
6735;SDS011;3405;50.576;12.364;2023-06-26T04:13:02;7.93;;;4.00;;
6735;SDS011;3405;50.576;12.364;2023-06-26T04:15:28;9.52;;;4.75;;
6735;SDS011;3405;50.576;12.364;2023-06-26T04:17:54;7.50;;;3.97;;
6735;SDS011;3405;50.576;12.364;2023-06-26T04:20:19;9.35;;;3.58;;
6735;SDS011;3405;50.576;12.364;2023-06-26T04:22:45;9.05;;;3.97;;
6735;SDS011;3405;50.576;12.364;2023-06-26T04:25:11;8.35;;;3.72;;
6735;SDS011;3405;50.576;12.364;2023-06-26T04:27:37;11.20;;;4.68;;
6735;SDS011;3405;50.576;12.364;2023-06-26T04:30:03;8.93;;;4.03;;
6735;SDS011;3405;50.576;12.364;2023-06-26T04:32:30;7.32;;;3.92;;
6735;SDS011;3405;50.576;12.364;2023-06-26T04:34:56;4.60;;;3.22;;
6735;SDS011;3405;50.576;12.364;2023-06-26T04:37:22;6.38;;;3.88;;
6735;SDS011;3405;50.576;12.364;2023-06-26T04:39:49;4.90;;;3.55;;
6735;SDS011;3405;50.576;12.364;2023-06-26T04:42:15;6.43;;;3.88;;
6735;SDS011;3405;50.576;12.364;2023-06-26T04:44:41;5.88;;;3.63;;
6735;SDS011;3405;50.576;12.364;2023-06-26T04:47:07;6.15;;;3.83;;
6735;SDS011;3405;50.576;12.364;2023-06-26T04:49:33;6.47;;;4.05;;
6735;SDS011;3405;50.576;12.364;2023-06-26T04:51:59;5.32;;;3.80;;
6735;SDS011;3405;50.576;12.364;2023-06-26T04:54:25;7.03;;;3.63;;
6735;SDS011;3405;50.576;12.364;2023-06-26T04:56:52;9.95;;;4.13;;
6735;SDS011;3405;50.576;12.364;2023-06-26T04:59:18;7.32;;;3.65;;
6735;SDS011;3405;50.576;12.364;2023-06-26T05:01:44;4.88;;;3.90;;
6735;SDS011;3405;50.576;12.364;2023-06-26T05:04:14;6.80;;;3.85;;
6735;SDS011;3405;50.576;12.364;2023-06-26T05:06:40;4.93;;;3.40;;
6735;SDS011;3405;50.576;12.364;2023-06-26T05:09:06;4.40;;;4.00;;
6735;SDS011;3405;50.576;12.364;2023-06-26T05:11:32;5.97;;;4.07;;
6735;SDS011;3405;50.576;12.364;2023-06-26T05:13:58;5.82;;;3.78;;
6735;SDS011;3405;50.576;12.364;2023-06-26T05:16:24;5.18;;;3.53;;
6735;SDS011;3405;50.576;12.364;2023-06-26T05:18:50;6.75;;;4.00;;
6735;SDS011;3405;50.576;12.364;2023-06-26T05:21:16;4.75;;;3.58;;
6735;SDS011;3405;50.576;12.364;2023-06-26T05:23:42;4.63;;;3.60;;
6735;SDS011;3405;50.576;12.364;2023-06-26T05:26:11;4.28;;;3.38;;
6735;SDS011;3405;50.576;12.364;2023-06-26T05:28:38;3.90;;;3.50;;
6735;SDS011;3405;50.576;12.364;2023-06-26T05:31:04;6.15;;;3.83;;
6735;SDS011;3405;50.576;12.364;2023-06-26T05:33:30;4.80;;;3.35;;
6735;SDS011;3405;50.576;12.364;2023-06-26T05:35:56;5.32;;;3.45;;
6735;SDS011;3405;50.576;12.364;2023-06-26T05:38:24;4.10;;;3.67;;
6735;SDS011;3405;50.576;12.364;2023-06-26T05:40:50;5.18;;;3.90;;
6735;SDS011;3405;50.576;12.364;2023-06-26T05:43:16;4.57;;;3.85;;
6735;SDS011;3405;50.576;12.364;2023-06-26T05:45:45;4.82;;;3.58;;
6735;SDS011;3405;50.576;12.364;2023-06-26T05:48:11;4.03;;;3.60;;
6735;SDS011;3405;50.576;12.364;2023-06-26T05:50:37;4.95;;;3.63;;
6735;SDS011;3405;50.576;12.364;2023-06-26T05:53:05;3.88;;;3.45;;
6735;SDS011;3405;50.576;12.364;2023-06-26T05:55:31;4.75;;;3.45;;
6735;SDS011;3405;50.576;12.364;2023-06-26T05:57:58;3.70;;;3.15;;
6735;SDS011;3405;50.576;12.364;2023-06-26T06:00:24;6.28;;;3.90;;
6735;SDS011;3405;50.576;12.364;2023-06-26T06:02:51;4.72;;;3.65;;
6735;SDS011;3405;50.576;12.364;2023-06-26T06:05:19;4.13;;;3.40;;
6735;SDS011;3405;50.576;12.364;2023-06-26T06:07:46;4.13;;;3.28;;
6735;SDS011;3405;50.576;12.364;2023-06-26T06:10:12;4.47;;;3.90;;
6735;SDS011;3405;50.576;12.364;2023-06-26T06:12:38;5.35;;;4.05;;
6735;SDS011;3405;50.576;12.364;2023-06-26T06:15:04;4.68;;;3.90;;
6735;SDS011;3405;50.576;12.364;2023-06-26T06:17:30;4.22;;;3.83;;
6735;SDS011;3405;50.576;12.364;2023-06-26T06:19:56;3.70;;;3.40;;
6735;SDS011;3405;50.576;12.364;2023-06-26T06:22:22;6.03;;;4.05;;
6735;SDS011;3405;50.576;12.364;2023-06-26T06:24:48;4.88;;;4.20;;
6735;SDS011;3405;50.576;12.364;2023-06-26T06:27:14;6.20;;;4.05;;
6735;SDS011;3405;50.576;12.364;2023-06-26T06:29:40;7.22;;;4.28;;
6735;SDS011;3405;50.576;12.364;2023-06-26T06:32:06;4.85;;;4.35;;
6735;SDS011;3405;50.576;12.364;2023-06-26T06:34:32;6.30;;;4.10;;
6735;SDS011;3405;50.576;12.364;2023-06-26T06:36:58;4.50;;;4.10;;
6735;SDS011;3405;50.576;12.364;2023-06-26T06:39:24;8.18;;;4.70;;
6735;SDS011;3405;50.576;12.364;2023-06-26T06:41:50;5.30;;;4.20;;
6735;SDS011;3405;50.576;12.364;2023-06-26T06:44:16;4.50;;;4.10;;
6735;SDS011;3405;50.576;12.364;2023-06-26T06:46:42;5.85;;;4.88;;
6735;SDS011;3405;50.576;12.364;2023-06-26T06:49:08;5.35;;;4.38;;
6735;SDS011;3405;50.576;12.364;2023-06-26T06:51:34;5.97;;;4.45;;
6735;SDS011;3405;50.576;12.364;2023-06-26T06:54:00;7.05;;;4.70;;
6735;SDS011;3405;50.576;12.364;2023-06-26T06:56:26;4.85;;;4.13;;
6735;SDS011;3405;50.576;12.364;2023-06-26T06:58:52;4.35;;;3.95;;
6735;SDS011;3405;50.576;12.364;2023-06-26T07:01:18;5.18;;;4.28;;
6735;SDS011;3405;50.576;12.364;2023-06-26T07:03:44;5.30;;;3.83;;
6735;SDS011;3405;50.576;12.364;2023-06-26T07:06:10;4.20;;;3.80;;
6735;SDS011;3405;50.576;12.364;2023-06-26T07:08:36;6.43;;;4.55;;
6735;SDS011;3405;50.576;12.364;2023-06-26T07:11:02;10.80;;;4.78;;
6735;SDS011;3405;50.576;12.364;2023-06-26T07:13:28;7.13;;;4.45;;
6735;SDS011;3405;50.576;12.364;2023-06-26T07:15:54;5.53;;;4.43;;
6735;SDS011;3405;50.576;12.364;2023-06-26T07:18:20;5.57;;;4.68;;
6735;SDS011;3405;50.576;12.364;2023-06-26T07:20:46;5.45;;;4.28;;
6735;SDS011;3405;50.576;12.364;2023-06-26T07:23:11;4.82;;;4.32;;
6735;SDS011;3405;50.576;12.364;2023-06-26T07:25:37;5.07;;;4.40;;
6735;SDS011;3405;50.576;12.364;2023-06-26T07:28:05;5.40;;;4.70;;
6735;SDS011;3405;50.576;12.364;2023-06-26T07:30:35;5.10;;;4.60;;
6735;SDS011;3405;50.576;12.364;2023-06-26T07:33:01;5.20;;;4.50;;
6735;SDS011;3405;50.576;12.364;2023-06-26T07:35:26;6.70;;;4.65;;
6735;SDS011;3405;50.576;12.364;2023-06-26T07:37:52;5.93;;;4.90;;
6735;SDS011;3405;50.576;12.364;2023-06-26T07:40:18;5.88;;;5.03;;
6735;SDS011;3405;50.576;12.364;2023-06-26T07:42:44;6.35;;;4.65;;
6735;SDS011;3405;50.576;12.364;2023-06-26T07:45:11;5.95;;;5.00;;
6735;SDS011;3405;50.576;12.364;2023-06-26T07:47:37;6.32;;;4.80;;
6735;SDS011;3405;50.576;12.364;2023-06-26T07:50:04;5.88;;;4.60;;
6735;SDS011;3405;50.576;12.364;2023-06-26T07:52:30;5.60;;;4.55;;
6735;SDS011;3405;50.576;12.364;2023-06-26T07:54:56;5.90;;;4.88;;
6735;SDS011;3405;50.576;12.364;2023-06-26T07:57:22;5.75;;;4.72;;
6735;SDS011;3405;50.576;12.364;2023-06-26T07:59:48;6.05;;;4.72;;
6735;SDS011;3405;50.576;12.364;2023-06-26T08:02:14;5.53;;;4.15;;
6735;SDS011;3405;50.576;12.364;2023-06-26T08:04:40;6.65;;;4.90;;
6735;SDS011;3405;50.576;12.364;2023-06-26T08:07:05;5.88;;;5.05;;
6735;SDS011;3405;50.576;12.364;2023-06-26T08:09:32;6.60;;;4.93;;
6735;SDS011;3405;50.576;12.364;2023-06-26T08:11:58;5.93;;;4.63;;
6735;SDS011;3405;50.576;12.364;2023-06-26T08:14:24;6.53;;;5.00;;
6735;SDS011;3405;50.576;12.364;2023-06-26T08:16:50;5.88;;;5.25;;
6735;SDS011;3405;50.576;12.364;2023-06-26T08:19:16;5.88;;;5.05;;
6735;SDS011;3405;50.576;12.364;2023-06-26T08:21:43;5.95;;;4.55;;
6735;SDS011;3405;50.576;12.364;2023-06-26T08:24:09;5.85;;;4.57;;
6735;SDS011;3405;50.576;12.364;2023-06-26T08:26:35;6.60;;;5.00;;
6735;SDS011;3405;50.576;12.364;2023-06-26T08:29:01;6.65;;;5.20;;
6735;SDS011;3405;50.576;12.364;2023-06-26T08:31:32;8.45;;;5.03;;
6735;SDS011;3405;50.576;12.364;2023-06-26T08:33:59;7.47;;;4.88;;
6735;SDS011;3405;50.576;12.364;2023-06-26T08:36:25;5.55;;;4.68;;
6735;SDS011;3405;50.576;12.364;2023-06-26T08:38:51;6.35;;;4.93;;
6735;SDS011;3405;50.576;12.364;2023-06-26T08:41:17;6.22;;;5.30;;
6735;SDS011;3405;50.576;12.364;2023-06-26T08:43:42;6.45;;;5.18;;
6735;SDS011;3405;50.576;12.364;2023-06-26T08:46:08;7.28;;;4.93;;
6735;SDS011;3405;50.576;12.364;2023-06-26T08:48:35;7.47;;;5.07;;
6735;SDS011;3405;50.576;12.364;2023-06-26T08:51:04;5.15;;;4.45;;
6735;SDS011;3405;50.576;12.364;2023-06-26T08:53:40;6.43;;;5.07;;
6735;SDS011;3405;50.576;12.364;2023-06-26T08:56:08;6.78;;;4.75;;
6735;SDS011;3405;50.576;12.364;2023-06-26T08:58:35;6.85;;;4.80;;
6735;SDS011;3405;50.576;12.364;2023-06-26T09:01:02;8.50;;;4.72;;
6735;SDS011;3405;50.576;12.364;2023-06-26T09:03:28;7.10;;;5.15;;
6735;SDS011;3405;50.576;12.364;2023-06-26T09:05:55;8.38;;;5.63;;
6735;SDS011;3405;50.576;12.364;2023-06-26T09:08:21;6.38;;;5.22;;
6735;SDS011;3405;50.576;12.364;2023-06-26T09:10:47;5.97;;;4.90;;
6735;SDS011;3405;50.576;12.364;2023-06-26T09:13:13;7.13;;;4.97;;
6735;SDS011;3405;50.576;12.364;2023-06-26T09:15:41;5.50;;;4.70;;
6735;SDS011;3405;50.576;12.364;2023-06-26T09:18:08;6.28;;;5.32;;
6735;SDS011;3405;50.576;12.364;2023-06-26T09:20:34;7.65;;;5.78;;
6735;SDS011;3405;50.576;12.364;2023-06-26T09:23:00;7.82;;;5.18;;
6735;SDS011;3405;50.576;12.364;2023-06-26T09:25:27;7.85;;;4.28;;
6735;SDS011;3405;50.576;12.364;2023-06-26T09:27:53;5.75;;;4.38;;
6735;SDS011;3405;50.576;12.364;2023-06-26T09:30:19;8.75;;;5.15;;
6735;SDS011;3405;50.576;12.364;2023-06-26T09:32:45;6.63;;;5.20;;
6735;SDS011;3405;50.576;12.364;2023-06-26T09:35:11;7.35;;;5.45;;
6735;SDS011;3405;50.576;12.364;2023-06-26T09:37:37;5.97;;;4.82;;
6735;SDS011;3405;50.576;12.364;2023-06-26T09:40:03;6.22;;;4.78;;
6735;SDS011;3405;50.576;12.364;2023-06-26T09:42:30;7.03;;;4.53;;
6735;SDS011;3405;50.576;12.364;2023-06-26T09:44:56;6.80;;;5.20;;
6735;SDS011;3405;50.576;12.364;2023-06-26T09:47:22;7.72;;;4.85;;
6735;SDS011;3405;50.576;12.364;2023-06-26T09:49:48;6.90;;;5.55;;
6735;SDS011;3405;50.576;12.364;2023-06-26T09:52:15;6.45;;;5.22;;
6735;SDS011;3405;50.576;12.364;2023-06-26T09:54:42;5.95;;;4.95;;
6735;SDS011;3405;50.576;12.364;2023-06-26T09:57:12;6.47;;;5.25;;
6735;SDS011;3405;50.576;12.364;2023-06-26T09:59:38;5.82;;;4.80;;
6735;SDS011;3405;50.576;12.364;2023-06-26T10:02:04;5.88;;;4.88;;
6735;SDS011;3405;50.576;12.364;2023-06-26T10:04:30;6.40;;;5.10;;
6735;SDS011;3405;50.576;12.364;2023-06-26T10:06:56;7.03;;;5.45;;
6735;SDS011;3405;50.576;12.364;2023-06-26T10:09:24;5.78;;;4.63;;
6735;SDS011;3405;50.576;12.364;2023-06-26T10:11:52;6.10;;;4.93;;
6735;SDS011;3405;50.576;12.364;2023-06-26T10:14:20;8.55;;;5.05;;
6735;SDS011;3405;50.576;12.364;2023-06-26T10:16:49;4.95;;;4.40;;
6735;SDS011;3405;50.576;12.364;2023-06-26T10:19:17;6.55;;;4.57;;
6735;SDS011;3405;50.576;12.364;2023-06-26T10:21:52;7.18;;;4.90;;
6735;SDS011;3405;50.576;12.364;2023-06-26T10:24:19;7.65;;;4.93;;
6735;SDS011;3405;50.576;12.364;2023-06-26T10:26:45;6.90;;;5.13;;
6735;SDS011;3405;50.576;12.364;2023-06-26T10:29:11;5.75;;;4.65;;
6735;SDS011;3405;50.576;12.364;2023-06-26T10:31:39;5.50;;;4.57;;
6735;SDS011;3405;50.576;12.364;2023-06-26T10:34:06;6.03;;;4.70;;
6735;SDS011;3405;50.576;12.364;2023-06-26T10:36:32;6.28;;;4.68;;
6735;SDS011;3405;50.576;12.364;2023-06-26T10:38:59;4.78;;;4.28;;
6735;SDS011;3405;50.576;12.364;2023-06-26T10:41:27;5.57;;;4.75;;
6735;SDS011;3405;50.576;12.364;2023-06-26T10:46:25;8.40;;;5.20;;
6735;SDS011;3405;50.576;12.364;2023-06-26T10:49:00;6.53;;;4.40;;
6735;SDS011;3405;50.576;12.364;2023-06-26T10:51:27;6.88;;;4.80;;
6735;SDS011;3405;50.576;12.364;2023-06-26T10:53:53;6.10;;;4.78;;
6735;SDS011;3405;50.576;12.364;2023-06-26T10:56:20;6.45;;;4.68;;
6735;SDS011;3405;50.576;12.364;2023-06-26T10:58:47;6.47;;;4.80;;
6735;SDS011;3405;50.576;12.364;2023-06-26T11:01:25;5.45;;;4.60;;
6735;SDS011;3405;50.576;12.364;2023-06-26T11:06:23;5.72;;;4.05;;
6735;SDS011;3405;50.576;12.364;2023-06-26T11:08:53;6.25;;;4.38;;
6735;SDS011;3405;50.576;12.364;2023-06-26T11:11:20;7.90;;;4.40;;
6735;SDS011;3405;50.576;12.364;2023-06-26T11:13:46;5.32;;;4.53;;
6735;SDS011;3405;50.576;12.364;2023-06-26T11:16:12;5.57;;;4.38;;
6735;SDS011;3405;50.576;12.364;2023-06-26T11:18:42;5.10;;;4.55;;
6735;SDS011;3405;50.576;12.364;2023-06-26T11:21:08;5.60;;;4.57;;
6735;SDS011;3405;50.576;12.364;2023-06-26T11:23:36;8.57;;;5.18;;
6735;SDS011;3405;50.576;12.364;2023-06-26T11:26:12;5.90;;;5.13;;
6735;SDS011;3405;50.576;12.364;2023-06-26T11:28:38;5.95;;;4.45;;
6735;SDS011;3405;50.576;12.364;2023-06-26T11:31:04;5.80;;;4.95;;
6735;SDS011;3405;50.576;12.364;2023-06-26T11:33:30;5.25;;;4.60;;
6735;SDS011;3405;50.576;12.364;2023-06-26T11:36:07;5.28;;;4.60;;
6735;SDS011;3405;50.576;12.364;2023-06-26T11:38:39;6.00;;;4.05;;
6735;SDS011;3405;50.576;12.364;2023-06-26T11:41:05;5.10;;;4.47;;
6735;SDS011;3405;50.576;12.364;2023-06-26T11:43:33;5.43;;;4.60;;
6735;SDS011;3405;50.576;12.364;2023-06-26T11:45:59;5.20;;;4.60;;
6735;SDS011;3405;50.576;12.364;2023-06-26T11:48:25;6.13;;;4.75;;
6735;SDS011;3405;50.576;12.364;2023-06-26T11:50:51;6.55;;;4.90;;
6735;SDS011;3405;50.576;12.364;2023-06-26T11:53:17;6.78;;;5.18;;
6735;SDS011;3405;50.576;12.364;2023-06-26T11:55:43;4.72;;;4.30;;
6735;SDS011;3405;50.576;12.364;2023-06-26T11:58:09;6.68;;;5.07;;
6735;SDS011;3405;50.576;12.364;2023-06-26T12:00:35;5.10;;;4.45;;
6735;SDS011;3405;50.576;12.364;2023-06-26T12:03:06;6.13;;;4.68;;
6735;SDS011;3405;50.576;12.364;2023-06-26T12:05:32;6.10;;;5.00;;
6735;SDS011;3405;50.576;12.364;2023-06-26T12:07:58;6.68;;;4.60;;
6735;SDS011;3405;50.576;12.364;2023-06-26T12:10:24;5.72;;;4.47;;
6735;SDS011;3405;50.576;12.364;2023-06-26T12:12:50;5.45;;;4.80;;
6735;SDS011;3405;50.576;12.364;2023-06-26T12:15:16;5.80;;;4.78;;
6735;SDS011;3405;50.576;12.364;2023-06-26T12:17:42;5.63;;;4.63;;
6735;SDS011;3405;50.576;12.364;2023-06-26T12:20:18;7.72;;;4.95;;
6735;SDS011;3405;50.576;12.364;2023-06-26T12:22:47;5.50;;;4.50;;
6735;SDS011;3405;50.576;12.364;2023-06-26T12:25:14;4.70;;;4.25;;
6735;SDS011;3405;50.576;12.364;2023-06-26T12:27:40;7.55;;;4.32;;
6735;SDS011;3405;50.576;12.364;2023-06-26T12:30:06;6.70;;;5.38;;
6735;SDS011;3405;50.576;12.364;2023-06-26T12:32:32;7.78;;;5.47;;
6735;SDS011;3405;50.576;12.364;2023-06-26T12:34:58;6.07;;;5.15;;
6735;SDS011;3405;50.576;12.364;2023-06-26T12:37:24;4.80;;;3.90;;
6735;SDS011;3405;50.576;12.364;2023-06-26T12:39:51;5.43;;;4.60;;
6735;SDS011;3405;50.576;12.364;2023-06-26T12:42:18;8.02;;;4.93;;
6735;SDS011;3405;50.576;12.364;2023-06-26T12:44:45;7.75;;;4.78;;
6735;SDS011;3405;50.576;12.364;2023-06-26T12:47:11;7.68;;;4.65;;
6735;SDS011;3405;50.576;12.364;2023-06-26T12:49:38;7.97;;;5.25;;
6735;SDS011;3405;50.576;12.364;2023-06-26T12:52:05;6.57;;;4.35;;
6735;SDS011;3405;50.576;12.364;2023-06-26T12:54:32;5.38;;;4.43;;
6735;SDS011;3405;50.576;12.364;2023-06-26T12:56:58;4.85;;;4.05;;
6735;SDS011;3405;50.576;12.364;2023-06-26T12:59:24;4.80;;;4.25;;
6735;SDS011;3405;50.576;12.364;2023-06-26T13:01:50;5.30;;;4.55;;
6735;SDS011;3405;50.576;12.364;2023-06-26T13:04:16;6.20;;;4.50;;
6735;SDS011;3405;50.576;12.364;2023-06-26T13:06:43;5.20;;;4.38;;
6735;SDS011;3405;50.576;12.364;2023-06-26T13:09:08;5.20;;;4.60;;
6735;SDS011;3405;50.576;12.364;2023-06-26T13:11:35;4.70;;;4.15;;
6735;SDS011;3405;50.576;12.364;2023-06-26T13:14:02;5.30;;;4.50;;
6735;SDS011;3405;50.576;12.364;2023-06-26T13:16:28;7.10;;;4.35;;
6735;SDS011;3405;50.576;12.364;2023-06-26T13:18:54;4.50;;;4.10;;
6735;SDS011;3405;50.576;12.364;2023-06-26T13:21:21;6.07;;;4.35;;
6735;SDS011;3405;50.576;12.364;2023-06-26T13:23:47;6.13;;;4.90;;
6735;SDS011;3405;50.576;12.364;2023-06-26T13:26:13;8.38;;;5.10;;
6735;SDS011;3405;50.576;12.364;2023-06-26T13:28:38;7.63;;;4.25;;
6735;SDS011;3405;50.576;12.364;2023-06-26T13:31:04;8.63;;;4.53;;
6735;SDS011;3405;50.576;12.364;2023-06-26T13:33:30;7.10;;;4.90;;
6735;SDS011;3405;50.576;12.364;2023-06-26T13:35:57;8.18;;;4.40;;
6735;SDS011;3405;50.576;12.364;2023-06-26T13:38:24;8.25;;;4.07;;
6735;SDS011;3405;50.576;12.364;2023-06-26T13:40:54;6.30;;;4.60;;
6735;SDS011;3405;50.576;12.364;2023-06-26T13:43:24;5.47;;;4.57;;
6735;SDS011;3405;50.576;12.364;2023-06-26T13:45:50;6.95;;;4.35;;
6735;SDS011;3405;50.576;12.364;2023-06-26T13:48:16;8.52;;;4.60;;
6735;SDS011;3405;50.576;12.364;2023-06-26T13:50:42;8.80;;;4.78;;
6735;SDS011;3405;50.576;12.364;2023-06-26T13:53:08;5.45;;;4.03;;
6735;SDS011;3405;50.576;12.364;2023-06-26T13:55:34;5.35;;;3.90;;
6735;SDS011;3405;50.576;12.364;2023-06-26T13:58:00;7.45;;;4.47;;
6735;SDS011;3405;50.576;12.364;2023-06-26T14:00:30;5.65;;;4.38;;
6735;SDS011;3405;50.576;12.364;2023-06-26T14:02:58;7.03;;;4.90;;
6735;SDS011;3405;50.576;12.364;2023-06-26T14:05:24;4.90;;;4.40;;
6735;SDS011;3405;50.576;12.364;2023-06-26T14:07:50;8.32;;;4.78;;
6735;SDS011;3405;50.576;12.364;2023-06-26T14:10:16;5.10;;;4.32;;
6735;SDS011;3405;50.576;12.364;2023-06-26T14:12:42;6.05;;;4.43;;
6735;SDS011;3405;50.576;12.364;2023-06-26T14:15:08;5.65;;;4.65;;
6735;SDS011;3405;50.576;12.364;2023-06-26T14:17:34;5.45;;;4.55;;
6735;SDS011;3405;50.576;12.364;2023-06-26T14:20:00;5.25;;;4.18;;
6735;SDS011;3405;50.576;12.364;2023-06-26T14:22:26;6.15;;;4.70;;
6735;SDS011;3405;50.576;12.364;2023-06-26T14:24:52;4.97;;;4.47;;
6735;SDS011;3405;50.576;12.364;2023-06-26T14:27:18;5.10;;;4.60;;
6735;SDS011;3405;50.576;12.364;2023-06-26T14:29:44;7.40;;;4.95;;
6735;SDS011;3405;50.576;12.364;2023-06-26T14:32:10;5.65;;;4.93;;
6735;SDS011;3405;50.576;12.364;2023-06-26T14:34:36;7.88;;;5.20;;
6735;SDS011;3405;50.576;12.364;2023-06-26T14:37:02;5.90;;;4.90;;
6735;SDS011;3405;50.576;12.364;2023-06-26T14:39:28;6.93;;;4.85;;
6735;SDS011;3405;50.576;12.364;2023-06-26T14:41:54;7.15;;;4.75;;
6735;SDS011;3405;50.576;12.364;2023-06-26T14:44:20;6.10;;;5.20;;
6735;SDS011;3405;50.576;12.364;2023-06-26T14:46:46;8.02;;;5.05;;
6735;SDS011;3405;50.576;12.364;2023-06-26T14:49:12;5.75;;;4.97;;
6735;SDS011;3405;50.576;12.364;2023-06-26T14:51:38;5.55;;;4.85;;
6735;SDS011;3405;50.576;12.364;2023-06-26T14:54:05;6.20;;;5.00;;
6735;SDS011;3405;50.576;12.364;2023-06-26T14:56:31;7.80;;;5.30;;
6735;SDS011;3405;50.576;12.364;2023-06-26T14:58:57;6.65;;;4.88;;
6735;SDS011;3405;50.576;12.364;2023-06-26T15:01:23;5.90;;;4.72;;
6735;SDS011;3405;50.576;12.364;2023-06-26T15:03:49;6.95;;;5.30;;